createdAt,value
2023-06-23T00:03:24.044Z,6.23
2023-06-23T00:08:26.511Z,4.23
2023-06-23T00:13:28.936Z,5.57
2023-06-23T00:18:32.866Z,11.20
2023-06-23T00:23:36.306Z,4.00
2023-06-23T00:28:38.930Z,8.03
2023-06-23T00:33:43.542Z,5.00
2023-06-23T00:38:46.239Z,4.00
2023-06-23T00:43:54.664Z,6.13
2023-06-23T00:48:57.220Z,6.53
2023-06-23T00:53:59.966Z,7.17
2023-06-23T00:59:04.100Z,4.27
2023-06-23T01:04:06.683Z,6.57
2023-06-23T01:09:17.099Z,4.30
2023-06-23T01:14:24.933Z,4.20
2023-06-23T01:20:26.102Z,6.40
2023-06-23T01:25:49.092Z,7.90
2023-06-23T01:30:56.236Z,7.33
2023-06-23T01:36:09.890Z,5.90
2023-06-23T01:41:25.693Z,5.13
2023-06-23T01:46:36.498Z,6.27
2023-06-23T01:51:44.652Z,5.03
2023-06-23T01:56:48.175Z,5.63
2023-06-23T02:01:52.027Z,5.60
2023-06-23T02:06:55.219Z,4.37
2023-06-23T02:11:59.098Z,6.70
2023-06-23T02:17:03.141Z,5.30
2023-06-23T02:22:10.194Z,5.00
2023-06-23T02:27:13.780Z,5.93
2023-06-23T02:32:18.658Z,6.03
2023-06-23T02:37:25.060Z,7.43
2023-06-23T02:42:34.748Z,9.30
2023-06-23T02:47:39.408Z,7.43
2023-06-23T02:52:46.529Z,5.93
2023-06-23T02:57:51.468Z,7.13
2023-06-23T03:02:59.035Z,6.00
2023-06-23T03:08:02.885Z,6.33
2023-06-23T03:13:05.438Z,6.00
2023-06-23T03:18:18.735Z,5.60
2023-06-23T03:23:26.640Z,4.63
2023-06-23T03:28:30.932Z,6.60
2023-06-23T03:33:37.183Z,4.67
2023-06-23T03:38:45.986Z,5.63
2023-06-23T03:48:58.056Z,7.80
2023-06-23T03:54:02.060Z,7.67
2023-06-23T03:59:05.292Z,9.43
2023-06-23T04:04:09.253Z,9.80
2023-06-23T04:09:12.104Z,6.87
2023-06-23T04:14:15.323Z,6.53
2023-06-23T04:19:19.506Z,7.33
2023-06-23T04:24:23.078Z,5.87
2023-06-23T04:29:27.448Z,7.37
2023-06-23T04:34:30.141Z,10.73
2023-06-23T04:39:48.931Z,8.37
2023-06-23T04:44:54.805Z,6.68
2023-06-23T04:50:00.264Z,7.67
2023-06-23T04:55:04.531Z,6.27
2023-06-23T05:00:09.178Z,6.60
2023-06-23T05:05:12.622Z,8.47
2023-06-23T05:10:15.310Z,7.63
2023-06-23T05:15:19.418Z,8.83
2023-06-23T05:20:22.671Z,9.83
2023-06-23T05:25:31.494Z,9.63
2023-06-23T05:35:38.671Z,10.70
2023-06-23T05:40:41.332Z,10.10
2023-06-23T05:45:44.506Z,8.33
2023-06-23T05:50:49.006Z,8.40
2023-06-23T05:56:02.332Z,10.70
2023-06-23T06:01:09.677Z,10.80
2023-06-23T06:06:12.937Z,9.90
2023-06-23T06:11:18.361Z,9.40
2023-06-23T06:16:21.324Z,12.60
2023-06-23T06:21:24.194Z,8.40
2023-06-23T06:26:27.119Z,7.63
2023-06-23T06:31:30.693Z,10.07
2023-06-23T06:36:34.481Z,9.87
2023-06-23T06:41:37.672Z,10.87
2023-06-23T06:46:42.228Z,9.67
2023-06-23T06:51:45.782Z,8.23
2023-06-23T06:56:48.256Z,12.47
2023-06-23T07:01:51.230Z,13.83
2023-06-23T07:06:55.328Z,10.97
2023-06-23T07:12:00.859Z,10.63
2023-06-23T07:17:03.368Z,11.97
2023-06-23T07:22:06.274Z,12.90
2023-06-23T07:27:09.715Z,11.07
2023-06-23T07:32:13.208Z,14.47
2023-06-23T07:37:15.902Z,12.03
2023-06-23T07:42:18.407Z,14.73
2023-06-23T07:47:21.139Z,13.40
2023-06-23T07:52:23.662Z,16.00
2023-06-23T07:57:26.786Z,16.07
2023-06-23T08:02:29.345Z,16.57
2023-06-23T08:07:32.032Z,14.70
2023-06-23T08:12:34.781Z,14.40
2023-06-23T08:17:37.516Z,14.33
2023-06-23T08:22:41.996Z,14.27
2023-06-23T08:27:44.629Z,14.43
2023-06-23T08:32:47.092Z,16.83
2023-06-23T08:37:49.829Z,12.93
2023-06-23T08:42:52.369Z,15.07
2023-06-23T08:47:58.264Z,13.67
2023-06-23T08:53:01.050Z,14.10
2023-06-23T08:58:04.095Z,13.80
2023-06-23T09:03:06.775Z,13.13
2023-06-23T09:08:10.393Z,8.97
2023-06-23T09:13:24.674Z,9.03
2023-06-23T09:18:27.217Z,8.27
2023-06-23T09:23:35.123Z,9.27
2023-06-23T09:28:38.580Z,9.70
2023-06-23T09:33:49.400Z,8.33
2023-06-23T09:38:54.246Z,7.67
2023-06-23T09:43:58.965Z,8.67
2023-06-23T09:49:02.171Z,6.70
2023-06-23T09:54:08.041Z,9.40
2023-06-23T09:59:10.508Z,8.43
2023-06-23T10:04:13.101Z,7.50
2023-06-23T10:09:16.672Z,7.93
2023-06-23T10:14:19.892Z,9.57
2023-06-23T10:19:22.629Z,7.80
2023-06-23T10:24:25.325Z,9.63
2023-06-23T10:29:29.170Z,11.47
2023-06-23T10:34:33.273Z,9.10
2023-06-23T10:39:37.313Z,12.73
2023-06-23T10:44:43.028Z,9.93
2023-06-23T10:49:46.648Z,10.73
2023-06-23T10:54:49.304Z,11.37
2023-06-23T11:00:07.419Z,12.93
2023-06-23T11:05:18.162Z,12.50
2023-06-23T11:10:22.094Z,10.33
2023-06-23T11:15:26.901Z,10.37
2023-06-23T11:20:31.432Z,13.80
2023-06-23T11:25:51.286Z,11.23
2023-06-23T11:31:05.404Z,10.63
2023-06-23T11:36:17.164Z,15.83
2023-06-23T11:41:27.324Z,13.13
2023-06-23T11:46:34.367Z,10.23
2023-06-23T11:51:36.980Z,11.83
2023-06-23T11:56:43.011Z,12.33
2023-06-23T12:01:45.690Z,11.57
2023-06-23T12:06:48.943Z,10.50
2023-06-23T12:11:53.127Z,11.23
2023-06-23T12:17:12.782Z,15.73
2023-06-23T12:22:19.750Z,12.77
2023-06-23T12:27:26.585Z,8.63
2023-06-23T12:32:32.550Z,9.43
2023-06-23T12:37:47.064Z,8.57
2023-06-23T12:42:49.644Z,10.75
2023-06-23T12:47:58.887Z,7.70
2023-06-23T12:53:01.477Z,7.90
2023-06-23T12:58:04.091Z,8.53
2023-06-23T13:03:08.679Z,8.02
2023-06-23T13:08:15.113Z,7.17
2023-06-23T13:13:17.666Z,7.67
2023-06-23T13:18:20.203Z,8.30
2023-06-23T13:23:22.771Z,8.77
2023-06-23T13:28:25.404Z,12.23
2023-06-23T13:33:27.979Z,7.87
2023-06-23T13:38:30.434Z,12.00
2023-06-23T13:43:32.902Z,10.02
2023-06-23T13:48:35.473Z,8.43
2023-06-23T13:53:39.989Z,10.00
2023-06-23T13:58:42.482Z,8.82
2023-06-23T14:03:45.164Z,9.07
2023-06-23T14:08:49.931Z,12.45
2023-06-23T14:13:52.581Z,9.80
2023-06-23T14:18:55.223Z,15.18
2023-06-23T14:23:57.708Z,10.60
2023-06-23T14:29:00.345Z,12.48
2023-06-23T14:34:04.712Z,11.63
2023-06-23T14:39:08.662Z,10.65
2023-06-23T14:44:11.095Z,11.55
2023-06-23T14:49:13.679Z,10.50
2023-06-23T14:54:16.171Z,11.38
2023-06-23T14:59:18.712Z,9.85
2023-06-23T15:04:21.256Z,10.68
2023-06-23T15:09:23.829Z,12.23
2023-06-23T15:14:26.393Z,13.43
2023-06-23T15:19:28.869Z,13.50
2023-06-23T15:24:31.426Z,12.77
2023-06-23T15:29:33.906Z,15.48
2023-06-23T15:34:36.445Z,16.90
2023-06-23T15:39:42.280Z,16.10
2023-06-23T15:44:45.885Z,15.48
2023-06-23T15:49:48.584Z,15.93
2023-06-23T15:54:51.409Z,17.85
2023-06-23T15:59:54.010Z,14.48
2023-06-23T16:04:56.680Z,17.08
2023-06-23T16:09:59.345Z,17.90
2023-06-23T16:15:01.768Z,13.38
2023-06-23T16:20:08.042Z,15.52
2023-06-23T16:25:10.479Z,18.50
2023-06-23T16:30:12.952Z,14.60
2023-06-23T16:35:15.425Z,16.63
2023-06-23T16:40:17.936Z,12.40
2023-06-23T16:45:20.369Z,15.02
2023-06-23T16:50:22.889Z,15.02
2023-06-23T16:55:25.280Z,17.98
2023-06-23T17:00:29.563Z,18.08
2023-06-23T17:05:32.157Z,14.20
2023-06-23T17:10:34.913Z,13.57
2023-06-23T17:15:37.440Z,13.07
2023-06-23T17:20:39.865Z,12.05
2023-06-23T17:25:42.428Z,14.50
2023-06-23T17:30:46.159Z,12.77
2023-06-23T17:35:48.677Z,17.27
2023-06-23T17:40:51.163Z,12.95
2023-06-23T17:45:53.568Z,12.35
2023-06-23T17:50:56.016Z,11.98
2023-06-23T17:56:00.746Z,14.35
2023-06-23T18:01:04.714Z,12.90
2023-06-23T18:06:07.432Z,16.77
2023-06-23T18:11:10.405Z,16.23
2023-06-23T18:16:12.930Z,12.73
2023-06-23T18:21:17.725Z,14.60
2023-06-23T18:26:20.321Z,17.55
2023-06-23T18:31:22.857Z,21.95
2023-06-23T18:36:25.386Z,15.25
2023-06-23T18:41:27.890Z,19.60
2023-06-23T18:46:31.956Z,21.02
2023-06-23T18:51:39.411Z,14.90
2023-06-23T18:56:42.315Z,19.10
2023-06-23T19:01:44.843Z,19.45
2023-06-23T19:06:47.453Z,13.98
2023-06-23T19:11:50.003Z,18.98
2023-06-23T19:16:52.492Z,19.90
2023-06-23T19:21:57.585Z,17.15
2023-06-23T19:26:59.980Z,20.13
2023-06-23T19:32:02.676Z,19.52
2023-06-23T19:37:05.628Z,19.38
2023-06-23T19:42:08.487Z,16.95
2023-06-23T19:47:11.252Z,16.70
2023-06-23T19:52:16.411Z,21.42
2023-06-23T19:57:18.918Z,22.45
2023-06-23T20:02:22.083Z,19.33
2023-06-23T20:07:24.929Z,20.15
2023-06-23T20:12:27.585Z,22.83
2023-06-23T20:17:30.204Z,19.40
2023-06-23T20:22:32.709Z,21.38
2023-06-23T20:27:35.224Z,15.85
2023-06-23T20:32:39.860Z,17.73
2023-06-23T20:37:42.816Z,17.83
2023-06-23T20:42:45.226Z,17.75
2023-06-23T20:47:48.108Z,17.80
2023-06-23T20:52:55.895Z,17.15
2023-06-23T20:57:58.301Z,19.05
2023-06-23T21:03:00.817Z,18.90
2023-06-23T21:08:03.294Z,16.97
2023-06-23T21:13:05.866Z,16.00
2023-06-23T21:18:08.537Z,14.15
2023-06-23T21:23:13.244Z,15.13
2023-06-23T21:28:16.633Z,14.43
2023-06-23T21:33:19.090Z,13.13
2023-06-23T21:38:21.626Z,14.70
2023-06-23T21:43:24.037Z,13.33
2023-06-23T21:48:29.119Z,13.73
2023-06-23T21:53:31.548Z,13.40
2023-06-23T21:58:34.397Z,17.00
2023-06-23T22:03:38.305Z,16.67
2023-06-23T22:08:40.905Z,12.93
2023-06-23T22:13:43.276Z,12.87
2023-06-23T22:18:49.781Z,12.57
2023-06-23T22:23:52.886Z,16.67
2023-06-23T22:28:55.956Z,13.57
2023-06-23T22:33:58.390Z,16.03
2023-06-23T22:39:01.057Z,16.03
2023-06-23T22:44:03.516Z,14.77
2023-06-23T22:49:07.470Z,11.50
2023-06-23T22:54:09.843Z,11.87
2023-06-23T22:59:12.213Z,15.50
2023-06-23T23:04:14.957Z,14.87
2023-06-23T23:09:17.550Z,11.03
2023-06-23T23:14:20.412Z,11.97
2023-06-23T23:19:23.010Z,11.97
2023-06-23T23:24:25.368Z,12.63
2023-06-23T23:29:27.992Z,9.70
2023-06-23T23:34:33.613Z,10.57
2023-06-23T23:39:36.175Z,11.63
2023-06-23T23:44:38.567Z,12.07
2023-06-23T23:49:41.027Z,9.33
2023-06-23T23:54:43.396Z,11.07
2023-06-23T23:59:46.283Z,10.07
